createdAt,value
2022-10-17T00:01:23.429Z,3.20
2022-10-17T00:03:49.796Z,2.92
2022-10-17T00:06:16.432Z,3.17
2022-10-17T00:08:43.996Z,3.42
2022-10-17T00:11:22.957Z,3.42
2022-10-17T00:13:51.065Z,3.33
2022-10-17T00:16:26.986Z,3.30
2022-10-17T00:18:53.490Z,3.25
2022-10-17T00:21:20.978Z,2.83
2022-10-17T00:23:48.080Z,3.25
2022-10-17T00:26:15.630Z,2.60
2022-10-17T00:28:42.670Z,2.38
2022-10-17T00:31:09.053Z,2.70
2022-10-17T00:33:36.226Z,2.72
2022-10-17T00:36:05.043Z,2.25
2022-10-17T00:38:31.563Z,3.40
2022-10-17T00:40:58.135Z,2.70
2022-10-17T00:43:24.845Z,2.40
2022-10-17T00:45:51.250Z,3.13
2022-10-17T00:48:21.256Z,2.70
2022-10-17T00:50:50.877Z,2.70
2022-10-17T00:53:18.623Z,2.50
2022-10-17T00:55:49.493Z,2.38
2022-10-17T00:58:17.026Z,1.77
2022-10-17T01:00:44.155Z,1.75
2022-10-17T01:03:10.693Z,2.17
2022-10-17T01:05:38.170Z,2.33
2022-10-17T01:08:04.814Z,2.45
2022-10-17T01:10:39.656Z,2.33
2022-10-17T01:13:13.771Z,2.15
2022-10-17T01:15:55.310Z,2.20
2022-10-17T01:18:49.160Z,2.25
2022-10-17T01:21:38.018Z,1.63
2022-10-17T01:24:26.170Z,1.98
2022-10-17T01:27:24.900Z,1.77
2022-10-17T01:30:28.049Z,2.30
2022-10-17T01:33:04.327Z,1.92
2022-10-17T01:35:49.271Z,1.98
2022-10-17T01:38:20.095Z,1.50
2022-10-17T01:40:52.709Z,1.75
2022-10-17T01:43:34.250Z,2.03
2022-10-17T01:46:24.847Z,1.88
2022-10-17T01:48:53.537Z,1.52
2022-10-17T01:51:30.853Z,1.60
2022-10-17T01:54:02.919Z,1.85
2022-10-17T01:56:32.726Z,1.38
2022-10-17T01:59:06.911Z,1.95
2022-10-17T02:01:35.872Z,2.10
2022-10-17T02:04:03.357Z,1.80
2022-10-17T02:06:29.661Z,2.08
2022-10-17T02:08:55.957Z,1.75
2022-10-17T02:11:24.700Z,1.70
2022-10-17T02:14:26.664Z,1.95
2022-10-17T02:17:04.990Z,1.98
2022-10-17T02:19:46.291Z,1.98
2022-10-17T02:22:27.433Z,2.22
2022-10-17T02:25:14.304Z,1.75
2022-10-17T02:27:55.118Z,2.15
2022-10-17T02:30:59.722Z,1.77
2022-10-17T02:33:34.465Z,1.75
2022-10-17T02:36:09.085Z,1.77
2022-10-17T02:38:35.641Z,1.70
2022-10-17T02:41:03.492Z,1.50
2022-10-17T02:43:30.242Z,1.65
2022-10-17T02:45:57.267Z,1.50
2022-10-17T02:48:41.911Z,1.80
2022-10-17T02:51:20.743Z,1.58
2022-10-17T02:53:55.530Z,1.75
2022-10-17T02:56:22.403Z,1.92
2022-10-17T02:58:54.472Z,1.55
2022-10-17T03:01:22.116Z,1.35
2022-10-17T03:03:48.576Z,1.60
2022-10-17T03:06:15.682Z,1.83
2022-10-17T03:08:42.217Z,1.60
2022-10-17T03:11:08.538Z,1.35
2022-10-17T03:13:37.580Z,2.00
2022-10-17T03:16:06.271Z,2.00
2022-10-17T03:18:32.820Z,1.58
2022-10-17T03:20:59.204Z,1.77
2022-10-17T03:23:25.523Z,2.05
2022-10-17T03:25:51.813Z,1.92
2022-10-17T03:28:18.207Z,1.67
2022-10-17T03:30:44.811Z,1.85
2022-10-17T03:33:11.187Z,1.52
2022-10-17T03:35:39.544Z,1.67
2022-10-17T03:38:05.928Z,1.63
2022-10-17T03:40:32.317Z,1.77
2022-10-17T03:42:58.654Z,1.95
2022-10-17T03:45:25.253Z,1.55
2022-10-17T03:47:51.686Z,1.95
2022-10-17T03:50:18.063Z,1.92
2022-10-17T03:52:48.218Z,2.33
2022-10-17T03:55:15.236Z,1.70
2022-10-17T03:57:43.418Z,1.42
2022-10-17T04:00:12.860Z,1.80
2022-10-17T04:02:39.535Z,1.90
2022-10-17T04:05:06.464Z,2.15
2022-10-17T04:07:32.775Z,2.17
2022-10-17T04:09:59.186Z,1.90
2022-10-17T04:12:25.543Z,1.90
2022-10-17T04:14:51.958Z,1.92
2022-10-17T04:17:18.428Z,2.30
2022-10-17T04:19:44.734Z,1.90
2022-10-17T04:22:11.110Z,1.50
2022-10-17T04:24:37.479Z,1.98
2022-10-17T04:27:03.936Z,2.50
2022-10-17T04:29:30.274Z,2.33
2022-10-17T04:31:56.571Z,2.33
2022-10-17T04:34:23.010Z,1.98
2022-10-17T04:36:49.322Z,2.00
2022-10-17T04:39:15.702Z,2.22
2022-10-17T04:41:42.131Z,2.40
2022-10-17T04:44:09.726Z,2.17
2022-10-17T04:46:36.104Z,2.10
2022-10-17T04:49:02.872Z,1.92
2022-10-17T04:51:29.179Z,1.77
2022-10-17T04:53:55.729Z,2.45
2022-10-17T04:56:24.968Z,2.15
2022-10-17T04:58:52.113Z,1.92
2022-10-17T05:01:21.221Z,2.35
2022-10-17T05:03:48.078Z,2.22
2022-10-17T05:06:23.199Z,2.60
2022-10-17T05:08:50.126Z,2.15
2022-10-17T05:11:17.996Z,2.35
2022-10-17T05:13:44.645Z,2.42
2022-10-17T05:16:11.021Z,2.70
2022-10-17T05:18:37.409Z,2.20
2022-10-17T05:21:04.206Z,2.92
2022-10-17T05:23:30.621Z,3.15
2022-10-17T05:25:57.050Z,2.72
2022-10-17T05:28:23.812Z,2.75
2022-10-17T05:30:50.223Z,2.67
2022-10-17T05:33:16.845Z,2.80
2022-10-17T05:35:43.297Z,3.08
2022-10-17T05:38:09.681Z,3.72
2022-10-17T05:40:36.219Z,3.00
2022-10-17T05:43:02.924Z,5.53
2022-10-17T05:45:29.297Z,3.08
2022-10-17T05:47:56.076Z,2.63
2022-10-17T05:50:22.371Z,3.30
2022-10-17T05:52:53.179Z,2.83
2022-10-17T05:55:19.518Z,2.78
2022-10-17T05:57:46.172Z,3.28
2022-10-17T06:00:13.754Z,3.33
2022-10-17T06:02:40.139Z,3.55
2022-10-17T06:05:06.633Z,3.40
2022-10-17T06:07:33.014Z,3.85
2022-10-17T06:09:59.306Z,3.25
2022-10-17T06:12:25.599Z,2.70
2022-10-17T06:14:51.961Z,2.80
2022-10-17T06:17:18.255Z,2.67
2022-10-17T06:19:45.005Z,3.10
2022-10-17T06:22:11.865Z,2.28
2022-10-17T06:24:38.187Z,2.60
2022-10-17T06:27:09.345Z,2.22
2022-10-17T06:29:38.502Z,2.75
2022-10-17T06:32:05.309Z,2.17
2022-10-17T06:34:31.687Z,1.98
2022-10-17T06:36:57.975Z,2.15
2022-10-17T06:39:24.416Z,1.50
2022-10-17T06:41:50.721Z,1.52
2022-10-17T06:44:17.106Z,2.00
2022-10-17T06:46:43.395Z,1.77
2022-10-17T06:49:10.480Z,1.52
2022-10-17T06:51:37.512Z,1.30
2022-10-17T06:54:03.973Z,1.50
2022-10-17T06:56:30.455Z,1.40
2022-10-17T06:58:56.804Z,1.65
2022-10-17T07:01:23.365Z,1.55
2022-10-17T07:03:49.911Z,1.30
2022-10-17T07:06:16.358Z,1.35
2022-10-17T07:08:43.602Z,1.55
2022-10-17T07:11:18.387Z,0.98
2022-10-17T07:13:45.352Z,1.60
2022-10-17T07:16:13.864Z,1.38
2022-10-17T07:18:41.120Z,1.50
2022-10-17T07:21:08.004Z,1.35
2022-10-17T07:23:35.674Z,1.70
2022-10-17T07:26:04.418Z,1.23
2022-10-17T07:28:30.721Z,1.83
2022-10-17T07:31:03.610Z,1.58
2022-10-17T07:33:29.929Z,1.33
2022-10-17T07:35:59.241Z,1.77
2022-10-17T07:38:26.172Z,1.20
2022-10-17T07:41:00.495Z,1.40
2022-10-17T07:43:27.915Z,1.60
2022-10-17T07:45:55.054Z,1.70
2022-10-17T07:48:23.180Z,1.60
2022-10-17T07:50:50.209Z,1.73
2022-10-17T07:53:17.753Z,1.52
2022-10-17T07:55:44.763Z,1.00
2022-10-17T07:58:11.149Z,1.40
2022-10-17T08:00:37.630Z,1.38
2022-10-17T08:03:04.921Z,1.40
2022-10-17T08:05:32.138Z,2.17
2022-10-17T08:07:58.883Z,3.33
2022-10-17T08:10:25.643Z,1.13
2022-10-17T08:12:51.977Z,1.20
2022-10-17T08:15:18.390Z,1.30
2022-10-17T08:17:44.708Z,1.45
2022-10-17T08:20:11.496Z,1.02
2022-10-17T08:22:38.113Z,1.30
2022-10-17T08:25:05.043Z,1.33
2022-10-17T08:27:33.319Z,1.30
2022-10-17T08:29:59.846Z,1.00
2022-10-17T08:32:28.444Z,1.58
2022-10-17T08:34:56.163Z,1.17
2022-10-17T08:37:23.412Z,1.75
2022-10-17T08:39:50.084Z,1.33
2022-10-17T08:43:04.322Z,1.30
2022-10-17T08:45:55.862Z,1.27
2022-10-17T08:48:25.712Z,1.48
2022-10-17T08:51:04.279Z,1.10
2022-10-17T08:53:37.808Z,1.45
2022-10-17T08:56:19.621Z,1.60
2022-10-17T08:58:51.554Z,1.17
2022-10-17T09:01:37.949Z,1.25
2022-10-17T09:04:23.034Z,1.48
2022-10-17T09:07:01.674Z,1.25
2022-10-17T09:09:33.946Z,1.17
2022-10-17T09:12:06.294Z,1.00
2022-10-17T09:14:51.536Z,1.25
2022-10-17T09:17:45.982Z,1.08
2022-10-17T09:20:17.963Z,1.02
2022-10-17T09:22:58.819Z,1.30
2022-10-17T09:25:27.411Z,1.20
2022-10-17T09:28:18.246Z,1.13
2022-10-17T09:30:47.733Z,1.50
2022-10-17T09:33:34.746Z,1.23
2022-10-17T09:36:10.796Z,0.90
2022-10-17T09:38:51.104Z,1.77
2022-10-17T09:41:44.074Z,1.33
2022-10-17T09:44:22.078Z,1.17
2022-10-17T09:47:07.187Z,1.27
2022-10-17T09:49:36.487Z,0.85
2022-10-17T09:52:04.999Z,1.42
2022-10-17T09:54:48.580Z,1.25
2022-10-17T09:57:17.930Z,0.88
2022-10-17T09:59:47.801Z,1.35
2022-10-17T10:02:20.372Z,0.90
2022-10-17T10:05:15.857Z,1.10
2022-10-17T10:07:46.034Z,1.45
2022-10-17T10:10:28.519Z,0.90
2022-10-17T10:13:15.977Z,1.10
2022-10-17T10:15:45.384Z,0.85
2022-10-17T10:21:09.531Z,1.10
2022-10-17T10:23:38.187Z,1.38
2022-10-17T10:26:21.216Z,0.82
2022-10-17T10:29:05.686Z,0.50
2022-10-17T10:31:38.758Z,1.20
2022-10-17T10:34:26.888Z,0.90
2022-10-17T10:36:59.131Z,1.15
2022-10-17T10:39:34.688Z,1.08
2022-10-17T10:42:03.337Z,1.55
2022-10-17T10:44:31.991Z,0.80
2022-10-17T10:47:15.584Z,1.00
2022-10-17T10:49:42.343Z,1.20
2022-10-17T10:52:15.392Z,0.95
2022-10-17T10:54:51.245Z,1.10
2022-10-17T10:57:23.944Z,1.58
2022-10-17T10:59:59.390Z,1.05
2022-10-17T11:02:37.418Z,0.98
2022-10-17T11:05:21.893Z,1.17
2022-10-17T11:07:59.874Z,1.08
2022-10-17T11:10:59.324Z,1.00
2022-10-17T11:13:31.584Z,0.90
2022-10-17T11:16:18.496Z,0.98
2022-10-17T11:18:50.700Z,1.48
2022-10-17T11:21:28.123Z,1.10
2022-10-17T11:24:00.487Z,1.30
2022-10-17T11:26:35.157Z,0.85
2022-10-17T11:29:05.543Z,0.90
2022-10-17T11:31:36.576Z,0.98
2022-10-17T11:34:25.509Z,0.90
2022-10-17T11:36:57.139Z,1.20
2022-10-17T11:39:34.718Z,1.05
2022-10-17T11:42:07.153Z,1.25
2022-10-17T11:44:39.176Z,1.10
2022-10-17T11:47:28.527Z,1.10
2022-10-17T11:53:05.101Z,1.10
2022-10-17T11:55:32.275Z,1.08
2022-10-17T11:58:32.997Z,1.50
2022-10-17T12:01:06.031Z,1.10
2022-10-17T12:03:44.500Z,0.70
2022-10-17T12:06:37.141Z,1.08
2022-10-17T12:09:23.531Z,1.17
2022-10-17T12:11:55.222Z,0.88
2022-10-17T12:14:47.516Z,0.80
2022-10-17T12:17:32.446Z,1.05
2022-10-17T12:20:21.591Z,0.90
2022-10-17T12:22:51.374Z,1.00
2022-10-17T12:25:31.481Z,1.13
2022-10-17T12:28:14.150Z,0.82
2022-10-17T12:30:56.935Z,1.10
2022-10-17T12:33:32.489Z,0.70
2022-10-17T12:36:17.471Z,1.02
2022-10-17T12:38:49.199Z,1.20
2022-10-17T12:41:36.959Z,1.23
2022-10-17T12:44:26.065Z,0.98
2022-10-17T12:47:04.402Z,0.93
2022-10-17T12:49:53.102Z,0.80
2022-10-17T12:52:46.734Z,0.82
2022-10-17T12:55:20.095Z,1.08
2022-10-17T12:58:06.913Z,1.23
2022-10-17T13:01:18.936Z,0.80
2022-10-17T13:03:48.640Z,0.98
2022-10-17T13:06:23.488Z,1.25
2022-10-17T13:09:16.505Z,1.00
2022-10-17T13:11:43.128Z,1.13
2022-10-17T13:14:13.131Z,1.00
2022-10-17T13:16:56.141Z,0.73
2022-10-17T13:19:29.573Z,0.68
2022-10-17T13:22:01.050Z,1.08
2022-10-17T13:24:33.062Z,1.00
2022-10-17T13:27:00.594Z,0.70
2022-10-17T13:29:28.428Z,0.68
2022-10-17T13:31:58.497Z,1.00
2022-10-17T13:34:25.939Z,0.90
2022-10-17T13:36:58.139Z,1.08
2022-10-17T13:39:44.740Z,0.90
2022-10-17T13:42:39.095Z,0.80
2022-10-17T13:45:18.251Z,0.70
2022-10-17T13:47:45.764Z,1.15
2022-10-17T13:50:43.086Z,1.23
2022-10-17T13:53:24.986Z,1.00
2022-10-17T13:56:22.911Z,0.80
2022-10-17T13:58:48.530Z,0.88
2022-10-17T14:01:15.732Z,1.17
2022-10-17T14:03:48.507Z,0.95
2022-10-17T14:06:18.767Z,1.17
2022-10-17T14:08:56.358Z,0.90
2022-10-17T14:11:27.271Z,0.70
2022-10-17T14:13:55.704Z,0.95
2022-10-17T14:16:23.894Z,1.00
2022-10-17T14:18:51.800Z,0.73
2022-10-17T14:21:43.880Z,0.90
2022-10-17T14:24:28.645Z,0.68
2022-10-17T14:26:57.603Z,0.90
2022-10-17T14:29:26.997Z,0.70
2022-10-17T14:32:02.606Z,0.80
2022-10-17T14:37:32.115Z,0.70
2022-10-17T14:40:01.026Z,1.00
2022-10-17T14:42:27.721Z,0.90
2022-10-17T14:44:56.897Z,0.82
2022-10-17T14:47:42.583Z,1.00
2022-10-17T14:50:12.398Z,0.60
2022-10-17T14:52:39.127Z,0.95
2022-10-17T14:55:26.674Z,1.05
2022-10-17T14:57:53.187Z,0.70
2022-10-17T15:00:21.031Z,0.93
2022-10-17T15:02:48.934Z,1.10
2022-10-17T15:05:16.281Z,1.25
2022-10-17T15:07:43.215Z,1.10
2022-10-17T15:10:36.527Z,1.05
2022-10-17T15:13:26.544Z,1.35
2022-10-17T15:15:50.428Z,0.95
2022-10-17T15:18:16.849Z,0.90
2022-10-17T15:20:43.148Z,0.85
2022-10-17T15:23:09.786Z,0.98
2022-10-17T15:25:36.504Z,1.30
2022-10-17T15:28:02.830Z,1.08
2022-10-17T15:30:32.388Z,1.00
2022-10-17T15:32:59.780Z,1.55
2022-10-17T15:35:27.878Z,1.25
2022-10-17T15:37:55.089Z,0.90
2022-10-17T15:40:24.473Z,1.23
2022-10-17T15:42:51.900Z,1.05
2022-10-17T15:45:19.963Z,1.73
2022-10-17T15:47:52.174Z,1.17
2022-10-17T15:50:18.860Z,1.50
2022-10-17T15:52:45.163Z,1.23
2022-10-17T15:55:11.451Z,1.20
2022-10-17T15:57:42.478Z,0.75
2022-10-17T16:00:21.124Z,1.00
2022-10-17T16:02:48.234Z,1.05
2022-10-17T16:05:20.566Z,1.50
2022-10-17T16:07:46.906Z,1.23
2022-10-17T16:10:14.742Z,1.20
2022-10-17T16:12:41.342Z,1.38
2022-10-17T16:15:15.484Z,1.63
2022-10-17T16:17:41.920Z,1.10
2022-10-17T16:20:09.567Z,1.33
2022-10-17T16:22:35.937Z,1.15
2022-10-17T16:25:05.083Z,1.13
2022-10-17T16:27:31.513Z,1.70
2022-10-17T16:29:58.184Z,1.20
2022-10-17T16:32:24.632Z,1.40
2022-10-17T16:34:51.050Z,1.42
2022-10-17T16:37:17.386Z,1.20
2022-10-17T16:39:44.071Z,1.90
2022-10-17T16:42:10.398Z,1.10
2022-10-17T16:44:36.980Z,1.25
2022-10-17T16:47:03.337Z,1.40
2022-10-17T16:49:29.619Z,1.58
2022-10-17T16:51:56.669Z,1.77
2022-10-17T16:54:23.083Z,1.27
2022-10-17T16:56:49.372Z,1.38
2022-10-17T16:59:15.688Z,1.38
2022-10-17T17:01:42.162Z,1.52
2022-10-17T17:04:08.497Z,1.50
2022-10-17T17:06:35.210Z,1.50
2022-10-17T17:09:01.623Z,1.17
2022-10-17T17:11:28.639Z,1.30
2022-10-17T17:13:57.066Z,1.42
2022-10-17T17:16:25.248Z,1.55
2022-10-17T17:19:00.638Z,1.20
2022-10-17T17:23:55.054Z,1.90
2022-10-17T17:26:22.927Z,2.30
2022-10-17T17:28:50.389Z,2.28
2022-10-17T17:31:20.006Z,1.70
2022-10-17T17:33:47.212Z,1.98
2022-10-17T17:36:20.172Z,2.03
2022-10-17T17:38:47.971Z,3.33
2022-10-17T17:41:17.191Z,2.30
2022-10-17T17:43:47.094Z,2.28
2022-10-17T17:46:15.461Z,2.30
2022-10-17T17:48:43.136Z,1.65
2022-10-17T17:51:12.630Z,1.88
2022-10-17T17:53:39.964Z,1.85
2022-10-17T17:56:11.996Z,1.83
2022-10-17T17:58:41.041Z,2.35
2022-10-17T18:01:18.156Z,1.95
2022-10-17T18:03:45.291Z,2.10
2022-10-17T18:06:15.436Z,2.13
2022-10-17T18:08:45.488Z,2.42
2022-10-17T18:11:12.406Z,2.17
2022-10-17T18:13:38.732Z,2.25
2022-10-17T18:16:06.385Z,1.90
2022-10-17T18:18:33.100Z,2.15
2022-10-17T18:21:01.429Z,2.13
2022-10-17T18:23:27.727Z,2.33
2022-10-17T18:26:01.170Z,2.40
2022-10-17T18:28:27.791Z,2.05
2022-10-17T18:30:54.616Z,2.15
2022-10-17T18:33:21.507Z,2.05
2022-10-17T18:35:47.805Z,1.65
2022-10-17T18:38:14.171Z,2.25
2022-10-17T18:40:40.671Z,2.30
2022-10-17T18:43:07.617Z,1.90
2022-10-17T18:45:33.936Z,2.50
2022-10-17T18:48:00.312Z,2.60
2022-10-17T18:50:27.434Z,2.30
2022-10-17T18:52:53.926Z,2.58
2022-10-17T18:55:20.305Z,2.38
2022-10-17T18:57:48.071Z,2.20
2022-10-17T19:00:15.310Z,1.98
2022-10-17T19:02:41.706Z,2.45
2022-10-17T19:05:09.006Z,2.08
2022-10-17T19:07:35.546Z,2.05
2022-10-17T19:10:01.843Z,2.45
2022-10-17T19:12:28.981Z,2.58
2022-10-17T19:14:55.480Z,2.58
2022-10-17T19:17:21.867Z,2.28
2022-10-17T19:19:48.195Z,2.92
2022-10-17T19:22:14.608Z,3.00
2022-10-17T19:24:41.064Z,2.70
2022-10-17T19:27:07.713Z,2.47
2022-10-17T19:29:34.199Z,3.10
2022-10-17T19:32:01.017Z,2.72
2022-10-17T19:37:18.102Z,2.92
2022-10-17T19:39:44.515Z,3.60
2022-10-17T19:42:10.870Z,3.17
2022-10-17T19:44:37.388Z,2.83
2022-10-17T19:47:03.883Z,2.95
2022-10-17T19:49:30.253Z,2.65
2022-10-17T19:51:56.552Z,2.63
2022-10-17T19:54:22.927Z,2.95
2022-10-17T19:56:49.318Z,3.03
2022-10-17T19:59:16.971Z,3.17
2022-10-17T20:01:43.937Z,3.65
2022-10-17T20:04:11.531Z,3.47
2022-10-17T20:06:39.196Z,3.22
2022-10-17T20:09:07.383Z,3.00
2022-10-17T20:11:35.160Z,3.22
2022-10-17T20:14:01.613Z,3.25
2022-10-17T20:16:31.325Z,3.10
2022-10-17T20:19:04.011Z,2.97
2022-10-17T20:21:30.737Z,3.30
2022-10-17T20:23:59.238Z,3.50
2022-10-17T20:26:37.495Z,3.35
2022-10-17T20:29:08.395Z,2.95
2022-10-17T20:31:34.883Z,3.30
2022-10-17T20:34:01.175Z,3.13
2022-10-17T20:36:27.462Z,3.10
2022-10-17T20:38:58.015Z,2.50
2022-10-17T20:41:26.021Z,2.80
2022-10-17T20:43:54.181Z,2.70
2022-10-17T20:46:35.894Z,2.70
2022-10-17T20:49:05.117Z,2.90
2022-10-17T20:51:31.749Z,2.83
2022-10-17T20:53:58.142Z,2.72
2022-10-17T20:56:28.267Z,2.58
2022-10-17T20:58:58.038Z,2.70
2022-10-17T21:01:26.089Z,2.53
2022-10-17T21:03:52.783Z,2.45
2022-10-17T21:06:21.793Z,2.72
2022-10-17T21:08:48.765Z,2.40
2022-10-17T21:11:23.568Z,2.05
2022-10-17T21:13:58.783Z,2.70
2022-10-17T21:16:26.107Z,2.63
2022-10-17T21:18:53.005Z,2.50
2022-10-17T21:21:25.021Z,2.47
2022-10-17T21:23:51.379Z,3.28
2022-10-17T21:26:18.353Z,3.42
2022-10-17T21:28:46.542Z,2.83
2022-10-17T21:31:18.538Z,2.63
2022-10-17T21:33:49.952Z,3.25
2022-10-17T21:36:17.593Z,3.20
2022-10-17T21:38:45.706Z,3.30
2022-10-17T21:41:13.277Z,2.90
2022-10-17T21:43:40.283Z,3.83
2022-10-17T21:46:12.526Z,3.40
2022-10-17T21:48:39.492Z,3.17
2022-10-17T21:51:08.896Z,4.00
2022-10-17T21:53:36.783Z,4.72
2022-10-17T21:56:05.790Z,5.15
2022-10-17T21:58:33.134Z,5.20
2022-10-17T22:01:08.350Z,4.88
2022-10-17T22:03:42.702Z,4.43
2022-10-17T22:09:00.634Z,5.38
2022-10-17T22:11:30.836Z,3.97
2022-10-17T22:13:59.963Z,4.80
2022-10-17T22:16:26.746Z,4.80
2022-10-17T22:19:00.521Z,4.57
2022-10-17T22:21:29.719Z,4.88
2022-10-17T22:23:59.383Z,5.07
2022-10-17T22:26:27.947Z,5.60
2022-10-17T22:28:54.510Z,4.80
2022-10-17T22:31:21.615Z,5.20
2022-10-17T22:33:48.108Z,4.35
2022-10-17T22:36:14.444Z,5.53
2022-10-17T22:38:40.901Z,4.93
2022-10-17T22:41:08.124Z,4.47
2022-10-17T22:43:34.832Z,4.93
2022-10-17T22:46:03.615Z,5.25
2022-10-17T22:48:30.385Z,4.68
2022-10-17T22:50:58.691Z,4.53
2022-10-17T22:53:25.923Z,5.10
2022-10-17T22:56:09.744Z,4.20
2022-10-17T22:58:36.414Z,4.32
2022-10-17T23:01:04.669Z,4.60
2022-10-17T23:03:31.665Z,4.43
2022-10-17T23:05:58.441Z,4.72
2022-10-17T23:08:25.433Z,4.28
2022-10-17T23:10:52.072Z,3.83
2022-10-17T23:13:18.476Z,5.30
2022-10-17T23:15:44.804Z,5.55
2022-10-17T23:18:11.361Z,4.65
2022-10-17T23:20:38.027Z,4.55
2022-10-17T23:23:05.314Z,3.78
2022-10-17T23:25:34.553Z,4.85
2022-10-17T23:28:01.739Z,4.70
2022-10-17T23:30:28.462Z,4.53
2022-10-17T23:32:54.822Z,4.63
2022-10-17T23:35:21.448Z,4.72
2022-10-17T23:37:47.825Z,4.53
2022-10-17T23:40:14.304Z,3.78
2022-10-17T23:42:40.678Z,3.78
2022-10-17T23:45:07.872Z,3.53
2022-10-17T23:47:34.387Z,4.53
2022-10-17T23:50:00.799Z,4.50
2022-10-17T23:52:27.131Z,4.70
2022-10-17T23:54:53.804Z,4.43
2022-10-17T23:57:20.265Z,4.70
2022-10-17T23:59:46.561Z,4.30
